createdAt,value
2023-01-17T00:00:20.929Z,6.78
2023-01-17T00:02:49.116Z,8.85
2023-01-17T00:05:35.024Z,7.90
2023-01-17T00:08:19.849Z,7.63
2023-01-17T00:10:48.443Z,8.90
2023-01-17T00:13:17.990Z,10.98
2023-01-17T00:15:46.408Z,8.60
2023-01-17T00:18:14.507Z,8.93
2023-01-17T00:21:00.541Z,8.98
2023-01-17T00:23:45.950Z,12.63
2023-01-17T00:26:17.313Z,11.20
2023-01-17T00:28:46.482Z,10.52
2023-01-17T00:31:15.459Z,11.43
2023-01-17T00:33:42.818Z,10.23
2023-01-17T00:36:10.830Z,14.23
2023-01-17T00:38:38.908Z,18.35
2023-01-17T00:41:07.794Z,15.30
2023-01-17T00:43:53.913Z,16.15
2023-01-17T00:46:41.261Z,17.00
2023-01-17T00:49:27.198Z,14.15
2023-01-17T00:52:12.923Z,17.13
2023-01-17T00:54:58.469Z,22.10
2023-01-17T00:57:44.164Z,22.08
2023-01-17T01:00:30.870Z,24.33
2023-01-17T01:03:18.040Z,23.05
2023-01-17T01:06:03.659Z,28.08
2023-01-17T01:08:49.741Z,26.73
2023-01-17T01:11:37.980Z,29.88
2023-01-17T01:14:26.048Z,35.38
2023-01-17T01:17:11.393Z,34.50
2023-01-17T01:19:58.505Z,23.20
2023-01-17T01:22:44.132Z,23.00
2023-01-17T01:25:29.907Z,24.58
2023-01-17T01:28:21.747Z,22.08
2023-01-17T01:31:07.510Z,23.65
2023-01-17T01:33:40.614Z,22.63
2023-01-17T01:36:10.699Z,27.70
2023-01-17T01:38:39.134Z,21.98
2023-01-17T01:41:07.920Z,27.85
2023-01-17T01:43:45.516Z,27.55
2023-01-17T01:46:17.585Z,30.33
2023-01-17T01:48:50.154Z,35.65
2023-01-17T01:51:23.920Z,35.63
2023-01-17T01:53:59.670Z,34.90
2023-01-17T01:56:29.927Z,27.70
2023-01-17T01:58:59.879Z,27.52
2023-01-17T02:01:28.813Z,32.45
2023-01-17T02:03:57.023Z,34.72
2023-01-17T02:06:37.170Z,37.60
2023-01-17T02:09:08.365Z,35.30
2023-01-17T02:11:38.906Z,43.90
2023-01-17T02:14:07.140Z,35.38
2023-01-17T02:16:49.576Z,38.85
2023-01-17T02:19:45.448Z,32.28
2023-01-17T02:22:41.889Z,43.13
2023-01-17T02:25:24.160Z,39.05
2023-01-17T02:28:11.297Z,38.72
2023-01-17T02:30:43.545Z,37.05
2023-01-17T02:33:24.050Z,32.17
2023-01-17T02:36:05.184Z,38.40
2023-01-17T02:38:41.733Z,38.40
2023-01-17T02:41:16.675Z,31.48
2023-01-17T02:43:45.281Z,30.65
2023-01-17T02:46:14.778Z,26.77
2023-01-17T02:48:44.006Z,33.15
2023-01-17T02:51:29.672Z,25.58
2023-01-17T02:54:11.566Z,31.30
2023-01-17T02:56:50.065Z,30.00
2023-01-17T02:59:30.620Z,26.95
2023-01-17T03:02:10.366Z,24.45
2023-01-17T03:04:45.722Z,24.88
2023-01-17T03:07:18.193Z,19.83
2023-01-17T03:09:50.010Z,23.95
2023-01-17T03:12:18.086Z,19.90
2023-01-17T03:14:46.491Z,17.45
2023-01-17T03:17:16.035Z,14.70
2023-01-17T03:19:44.362Z,13.88
2023-01-17T03:22:12.379Z,15.98
2023-01-17T03:24:40.666Z,10.70
2023-01-17T03:27:08.920Z,9.15
2023-01-17T03:29:37.028Z,6.32
2023-01-17T03:32:05.687Z,7.97
2023-01-17T03:34:35.177Z,5.32
2023-01-17T03:37:03.575Z,4.40
2023-01-17T03:39:31.752Z,3.50
2023-01-17T03:42:00.142Z,5.50
2023-01-17T03:44:28.214Z,4.35
2023-01-17T03:46:56.435Z,4.10
2023-01-17T03:49:24.818Z,4.30
2023-01-17T03:51:54.218Z,4.88
2023-01-17T03:54:22.562Z,3.50
2023-01-17T03:56:50.755Z,3.90
2023-01-17T03:59:19.126Z,2.17
2023-01-17T04:01:47.281Z,1.88
2023-01-17T04:04:16.063Z,2.95
2023-01-17T04:06:44.344Z,1.10
2023-01-17T04:09:14.069Z,1.65
2023-01-17T04:11:42.305Z,2.25
2023-01-17T04:14:10.508Z,1.70
2023-01-17T04:16:39.906Z,2.38
2023-01-17T04:19:08.016Z,1.40
2023-01-17T04:21:36.429Z,0.50
2023-01-17T04:24:04.572Z,3.85
2023-01-17T04:26:34.276Z,2.88
2023-01-17T04:29:02.400Z,3.53
2023-01-17T04:31:30.830Z,2.45
2023-01-17T04:33:58.955Z,5.43
2023-01-17T04:36:27.295Z,3.03
2023-01-17T04:38:55.367Z,2.78
2023-01-17T04:41:23.735Z,5.68
2023-01-17T04:43:53.174Z,4.43
2023-01-17T04:46:21.581Z,2.75
2023-01-17T04:48:49.739Z,3.58
2023-01-17T04:51:17.971Z,3.65
2023-01-17T04:53:46.061Z,6.38
2023-01-17T04:56:14.469Z,8.82
2023-01-17T04:58:42.603Z,4.82
2023-01-17T05:01:12.451Z,5.78
2023-01-17T05:03:40.557Z,9.95
2023-01-17T05:06:08.928Z,6.63
2023-01-17T05:08:37.075Z,6.05
2023-01-17T05:11:05.475Z,11.00
2023-01-17T05:13:33.539Z,3.63
2023-01-17T05:16:02.071Z,14.57
2023-01-17T05:18:31.562Z,11.63
2023-01-17T05:21:02.905Z,12.35
2023-01-17T05:23:31.008Z,11.77
2023-01-17T05:25:59.347Z,11.55
2023-01-17T05:28:29.086Z,13.90
2023-01-17T05:30:57.485Z,10.68
2023-01-17T05:33:25.657Z,8.02
2023-01-17T05:35:55.293Z,14.32
2023-01-17T05:38:23.728Z,10.27
2023-01-17T05:40:51.883Z,9.98
2023-01-17T05:43:22.066Z,15.13
2023-01-17T05:45:50.578Z,7.43
2023-01-17T05:48:18.946Z,10.25
2023-01-17T05:50:47.099Z,13.70
2023-01-17T05:53:18.040Z,15.40
2023-01-17T05:55:47.659Z,23.23
2023-01-17T05:58:17.673Z,12.48
2023-01-17T06:00:46.239Z,14.35
2023-01-17T06:03:15.064Z,13.70
2023-01-17T06:05:43.200Z,15.18
2023-01-17T06:08:12.044Z,12.88
2023-01-17T06:10:41.679Z,12.05
2023-01-17T06:13:12.679Z,11.80
2023-01-17T06:15:41.082Z,8.25
2023-01-17T06:18:10.839Z,4.07
2023-01-17T06:20:39.577Z,5.40
2023-01-17T06:23:10.930Z,8.05
2023-01-17T06:25:39.737Z,8.98
2023-01-17T06:28:09.612Z,5.90
2023-01-17T06:30:38.451Z,5.05
2023-01-17T06:33:07.233Z,7.03
2023-01-17T06:35:36.718Z,6.55
2023-01-17T06:38:05.272Z,9.80
2023-01-17T06:40:33.983Z,6.32
2023-01-17T06:43:02.909Z,4.70
2023-01-17T06:45:34.570Z,6.05
2023-01-17T06:48:04.243Z,9.25
2023-01-17T06:50:32.978Z,9.02
2023-01-17T06:53:03.343Z,10.13
2023-01-17T06:55:33.614Z,6.20
2023-01-17T06:58:03.203Z,6.80
2023-01-17T07:00:34.891Z,9.50
2023-01-17T07:03:03.797Z,8.70
2023-01-17T07:05:32.814Z,6.78
2023-01-17T07:08:01.184Z,10.77
2023-01-17T07:10:29.266Z,10.88
2023-01-17T07:13:00.641Z,9.88
2023-01-17T07:15:28.871Z,12.30
2023-01-17T07:17:58.430Z,6.85
2023-01-17T07:20:26.501Z,11.15
2023-01-17T07:22:55.055Z,9.52
2023-01-17T07:25:23.368Z,10.20
2023-01-17T07:27:54.592Z,9.90
2023-01-17T07:30:22.985Z,13.82
2023-01-17T07:32:53.319Z,10.50
2023-01-17T07:35:23.358Z,9.25
2023-01-17T07:37:52.351Z,13.65
2023-01-17T07:40:22.428Z,12.98
2023-01-17T07:42:50.701Z,12.10
2023-01-17T07:45:19.072Z,13.55
2023-01-17T07:47:47.233Z,14.18
2023-01-17T07:50:15.685Z,18.73
2023-01-17T07:52:49.671Z,12.40
2023-01-17T07:55:18.560Z,16.60
2023-01-17T07:57:50.161Z,15.27
2023-01-17T08:00:19.648Z,9.30
2023-01-17T08:02:47.768Z,15.50
2023-01-17T08:05:16.309Z,16.15
2023-01-17T08:07:45.778Z,12.88
2023-01-17T08:10:18.113Z,13.38
2023-01-17T08:12:47.073Z,13.90
2023-01-17T08:15:15.804Z,14.45
2023-01-17T08:17:47.155Z,13.35
2023-01-17T08:20:16.033Z,14.40
2023-01-17T08:22:45.535Z,14.43
2023-01-17T08:25:14.294Z,6.22
2023-01-17T08:27:42.369Z,15.02
2023-01-17T08:30:11.866Z,8.43
2023-01-17T08:32:40.780Z,5.43
2023-01-17T08:35:10.427Z,9.93
2023-01-17T08:37:39.110Z,6.18
2023-01-17T08:40:11.240Z,6.55
2023-01-17T08:42:40.979Z,4.60
2023-01-17T08:45:10.712Z,5.57
2023-01-17T08:47:38.925Z,5.72
2023-01-17T08:50:08.042Z,8.88
2023-01-17T08:52:36.375Z,4.70
2023-01-17T08:55:05.977Z,8.88
2023-01-17T08:57:35.479Z,8.35
2023-01-17T09:00:04.162Z,3.00
2023-01-17T09:02:32.398Z,5.85
2023-01-17T09:05:01.402Z,6.78
2023-01-17T09:07:29.674Z,11.93
2023-01-17T09:09:57.997Z,9.07
2023-01-17T09:12:26.325Z,9.00
2023-01-17T09:14:56.368Z,8.13
2023-01-17T09:17:24.917Z,5.53
2023-01-17T09:19:53.175Z,3.55
2023-01-17T09:22:21.533Z,4.13
2023-01-17T09:24:49.605Z,5.45
2023-01-17T09:27:18.662Z,3.92
2023-01-17T09:29:46.781Z,4.70
2023-01-17T09:32:17.287Z,2.50
2023-01-17T09:34:45.507Z,4.07
2023-01-17T09:37:14.005Z,4.57
2023-01-17T09:39:42.136Z,7.30
2023-01-17T09:42:21.912Z,3.10
2023-01-17T09:44:52.034Z,7.47
2023-01-17T09:47:32.658Z,5.22
2023-01-17T09:50:12.348Z,2.97
2023-01-17T09:52:40.831Z,5.50
2023-01-17T09:55:15.357Z,5.47
2023-01-17T09:57:51.298Z,5.55
2023-01-17T10:00:34.541Z,5.28
2023-01-17T10:03:38.677Z,4.53
2023-01-17T10:06:26.348Z,5.70
2023-01-17T10:09:10.747Z,5.30
2023-01-17T10:11:53.643Z,4.00
2023-01-17T10:14:37.275Z,2.65
2023-01-17T10:17:17.283Z,8.75
2023-01-17T10:19:58.644Z,1.98
2023-01-17T10:22:46.389Z,4.82
2023-01-17T10:25:30.289Z,3.60
2023-01-17T10:28:00.240Z,5.65
2023-01-17T10:30:34.733Z,3.17
2023-01-17T10:33:06.396Z,4.22
2023-01-17T10:35:39.720Z,3.20
2023-01-17T10:38:12.415Z,5.53
2023-01-17T10:40:43.780Z,4.20
2023-01-17T10:43:18.207Z,3.42
2023-01-17T10:45:54.029Z,5.28
2023-01-17T10:48:35.586Z,3.30
2023-01-17T10:51:17.200Z,3.90
2023-01-17T10:53:58.209Z,3.80
2023-01-17T10:56:29.937Z,2.30
2023-01-17T10:59:12.741Z,3.75
2023-01-17T11:01:41.760Z,3.60
2023-01-17T11:04:17.795Z,2.95
2023-01-17T11:06:57.807Z,3.95
2023-01-17T11:09:39.355Z,3.40
2023-01-17T11:12:18.751Z,3.65
2023-01-17T11:14:59.894Z,4.50
2023-01-17T11:17:28.963Z,3.03
2023-01-17T11:20:10.124Z,2.10
2023-01-17T11:22:40.241Z,4.90
2023-01-17T11:25:21.230Z,4.22
2023-01-17T11:27:59.672Z,3.30
2023-01-17T11:30:29.491Z,4.28
2023-01-17T11:32:59.105Z,4.22
2023-01-17T11:35:29.933Z,4.28
2023-01-17T11:38:07.940Z,5.15
2023-01-17T11:40:40.535Z,2.55
2023-01-17T11:43:26.355Z,4.13
2023-01-17T11:46:07.394Z,2.97
2023-01-17T11:48:38.452Z,5.45
2023-01-17T11:51:23.569Z,2.40
2023-01-17T11:53:55.662Z,1.90
2023-01-17T11:56:32.946Z,4.90
2023-01-17T11:59:31.907Z,5.35
2023-01-17T12:02:44.017Z,5.72
2023-01-17T12:05:36.053Z,3.95
2023-01-17T12:08:13.776Z,3.17
2023-01-17T12:10:52.786Z,3.20
2023-01-17T12:13:44.458Z,1.75
2023-01-17T12:16:32.871Z,3.67
2023-01-17T12:19:21.771Z,3.42
2023-01-17T12:22:04.804Z,4.05
2023-01-17T12:24:53.728Z,3.70
2023-01-17T12:27:34.721Z,2.47
2023-01-17T12:30:31.358Z,1.95
2023-01-17T12:33:12.149Z,2.60
2023-01-17T12:35:44.918Z,2.83
2023-01-17T12:38:31.809Z,3.85
2023-01-17T12:41:06.311Z,3.30
2023-01-17T12:43:40.593Z,4.70
2023-01-17T12:46:16.941Z,3.85
2023-01-17T12:48:46.355Z,6.95
2023-01-17T12:51:19.262Z,3.08
2023-01-17T12:53:56.544Z,6.30
2023-01-17T12:56:30.406Z,3.78
2023-01-17T12:59:09.679Z,3.20
2023-01-17T13:01:39.851Z,4.22
2023-01-17T13:04:19.674Z,2.08
2023-01-17T13:07:00.029Z,4.40
2023-01-17T13:09:33.052Z,4.43
2023-01-17T13:12:05.542Z,2.90
2023-01-17T13:14:35.961Z,3.20
2023-01-17T13:17:11.335Z,4.80
2023-01-17T13:19:46.761Z,5.82
2023-01-17T13:22:21.809Z,5.57
2023-01-17T13:24:58.306Z,5.53
2023-01-17T13:27:55.884Z,3.95
2023-01-17T13:30:48.797Z,3.58
2023-01-17T13:33:33.256Z,4.63
2023-01-17T13:38:54.895Z,8.82
2023-01-17T13:41:43.548Z,5.00
2023-01-17T13:44:25.421Z,7.05
2023-01-17T13:47:04.384Z,3.17
2023-01-17T13:49:56.570Z,7.15
2023-01-17T13:52:35.835Z,6.95
2023-01-17T13:55:07.145Z,6.15
2023-01-17T13:57:42.261Z,4.18
2023-01-17T14:00:59.391Z,5.80
2023-01-17T14:04:07.555Z,8.05
2023-01-17T14:06:40.622Z,6.30
2023-01-17T14:09:25.634Z,2.72
2023-01-17T14:12:07.871Z,6.03
2023-01-17T14:14:49.584Z,4.70
2023-01-17T14:17:48.568Z,4.95
2023-01-17T14:20:58.734Z,5.15
2023-01-17T14:24:00.541Z,4.13
2023-01-17T14:26:51.648Z,6.93
2023-01-17T14:29:50.837Z,6.25
2023-01-17T14:32:21.407Z,5.32
2023-01-17T14:34:52.177Z,5.50
2023-01-17T14:37:39.169Z,4.22
2023-01-17T14:40:20.915Z,7.10
2023-01-17T14:42:55.040Z,6.47
2023-01-17T14:45:28.926Z,5.18
2023-01-17T14:47:58.737Z,5.50
2023-01-17T14:50:30.449Z,5.43
2023-01-17T14:53:17.609Z,5.43
2023-01-17T14:55:57.501Z,4.30
2023-01-17T14:58:28.554Z,7.95
2023-01-17T15:01:02.761Z,7.85
2023-01-17T15:03:34.234Z,4.70
2023-01-17T15:06:11.904Z,5.22
2023-01-17T15:08:40.353Z,5.55
2023-01-17T15:11:17.193Z,4.28
2023-01-17T15:13:49.422Z,6.07
2023-01-17T15:16:24.209Z,9.48
2023-01-17T15:18:53.313Z,8.07
2023-01-17T15:21:23.507Z,8.73
2023-01-17T15:23:55.318Z,11.60
2023-01-17T15:26:27.156Z,8.40
2023-01-17T15:29:04.146Z,8.40
2023-01-17T15:31:45.557Z,11.20
2023-01-17T15:34:26.638Z,12.02
2023-01-17T15:36:57.337Z,5.72
2023-01-17T15:39:30.207Z,5.82
2023-01-17T15:42:01.613Z,6.13
2023-01-17T15:44:50.248Z,5.72
2023-01-17T15:47:30.280Z,9.75
2023-01-17T15:49:59.730Z,10.75
2023-01-17T15:52:27.998Z,8.30
2023-01-17T15:54:59.903Z,9.52
2023-01-17T15:57:36.905Z,10.35
2023-01-17T16:00:09.263Z,10.73
2023-01-17T16:02:43.702Z,8.57
2023-01-17T16:05:38.591Z,6.43
2023-01-17T16:08:26.493Z,6.80
2023-01-17T16:10:58.047Z,7.93
2023-01-17T16:13:27.765Z,12.55
2023-01-17T16:15:56.140Z,7.82
2023-01-17T16:18:26.248Z,7.43
2023-01-17T16:20:59.337Z,9.95
2023-01-17T16:23:28.239Z,7.30
2023-01-17T16:25:56.319Z,6.05
2023-01-17T16:28:24.654Z,8.82
2023-01-17T16:30:54.582Z,7.78
2023-01-17T16:33:22.834Z,11.07
2023-01-17T16:35:54.449Z,13.23
2023-01-17T16:38:22.811Z,8.52
2023-01-17T16:40:51.109Z,8.90
2023-01-17T16:43:20.976Z,8.55
2023-01-17T16:45:52.695Z,10.07
2023-01-17T16:48:22.676Z,13.85
2023-01-17T16:50:53.056Z,8.18
2023-01-17T16:53:24.863Z,7.70
2023-01-17T16:55:55.909Z,11.00
2023-01-17T16:58:24.460Z,7.70
2023-01-17T17:00:55.146Z,9.50
2023-01-17T17:03:25.036Z,8.27
2023-01-17T17:05:57.520Z,8.68
2023-01-17T17:08:26.003Z,10.73
2023-01-17T17:10:54.043Z,10.95
2023-01-17T17:13:22.509Z,9.52
2023-01-17T17:15:50.920Z,10.00
2023-01-17T17:18:19.454Z,12.10
2023-01-17T17:20:49.475Z,15.70
2023-01-17T17:23:17.768Z,13.82
2023-01-17T17:25:45.827Z,10.95
2023-01-17T17:28:14.026Z,11.65
2023-01-17T17:30:42.351Z,13.50
2023-01-17T17:33:10.924Z,13.00
2023-01-17T17:35:39.258Z,13.73
2023-01-17T17:38:08.725Z,15.20
2023-01-17T17:40:37.289Z,14.10
2023-01-17T17:43:05.355Z,14.88
2023-01-17T17:45:33.442Z,12.70
2023-01-17T17:48:01.666Z,17.20
2023-01-17T17:50:29.767Z,11.55
2023-01-17T17:52:58.047Z,15.00
2023-01-17T17:55:28.473Z,13.02
2023-01-17T17:57:56.737Z,13.65
2023-01-17T18:00:25.098Z,13.18
2023-01-17T18:02:53.387Z,15.45
2023-01-17T18:05:21.592Z,14.65
2023-01-17T18:07:51.136Z,15.38
2023-01-17T18:10:19.543Z,13.60
2023-01-17T18:12:49.249Z,17.05
2023-01-17T18:15:18.490Z,14.18
2023-01-17T18:17:47.208Z,14.45
2023-01-17T18:20:15.961Z,16.40
2023-01-17T18:22:44.099Z,14.10
2023-01-17T18:25:13.021Z,14.52
2023-01-17T18:27:45.014Z,13.38
2023-01-17T18:30:15.379Z,18.05
2023-01-17T18:32:43.517Z,16.15
2023-01-17T18:35:11.715Z,15.90
2023-01-17T18:37:39.806Z,16.52
2023-01-17T18:40:08.547Z,15.13
2023-01-17T18:42:36.866Z,15.48
2023-01-17T18:45:05.659Z,13.68
2023-01-17T18:47:35.821Z,13.07
2023-01-17T18:50:05.883Z,17.40
2023-01-17T18:52:35.220Z,13.02
2023-01-17T18:55:03.302Z,13.35
2023-01-17T18:57:31.548Z,14.18
2023-01-17T18:59:59.632Z,16.05
2023-01-17T19:02:27.866Z,13.85
2023-01-17T19:04:57.440Z,17.85
2023-01-17T19:07:29.016Z,18.95
2023-01-17T19:09:57.361Z,13.70
2023-01-17T19:12:25.492Z,17.05
2023-01-17T19:14:53.575Z,13.50
2023-01-17T19:17:21.739Z,16.67
2023-01-17T19:19:49.889Z,14.65
2023-01-17T19:22:19.361Z,13.65
2023-01-17T19:24:47.600Z,14.57
2023-01-17T19:27:15.899Z,14.32
2023-01-17T19:29:44.069Z,14.93
2023-01-17T19:32:12.419Z,13.27
2023-01-17T19:34:40.521Z,11.52
2023-01-17T19:37:08.817Z,10.90
2023-01-17T19:39:38.279Z,15.07
2023-01-17T19:42:09.502Z,15.07
2023-01-17T19:44:38.150Z,12.27
2023-01-17T19:47:06.660Z,12.82
2023-01-17T19:49:34.793Z,16.15
2023-01-17T19:52:03.454Z,14.55
2023-01-17T19:54:31.634Z,16.10
2023-01-17T19:57:01.128Z,18.80
2023-01-17T19:59:29.210Z,17.80
2023-01-17T20:01:57.719Z,15.57
2023-01-17T20:04:25.838Z,14.70
2023-01-17T20:06:54.901Z,14.05
2023-01-17T20:09:23.834Z,13.07
2023-01-17T20:11:51.955Z,15.13
2023-01-17T20:14:21.868Z,14.50
2023-01-17T20:16:51.373Z,14.13
2023-01-17T20:19:19.743Z,13.93
2023-01-17T20:21:48.107Z,13.98
2023-01-17T20:24:16.592Z,15.40
2023-01-17T20:26:44.885Z,13.60
2023-01-17T20:29:15.148Z,15.45
2023-01-17T20:31:45.969Z,11.45
2023-01-17T20:34:19.647Z,12.93
2023-01-17T20:36:48.005Z,12.48
2023-01-17T20:39:16.653Z,11.50
2023-01-17T20:41:46.204Z,13.73
2023-01-17T20:44:16.816Z,14.30
2023-01-17T20:46:48.007Z,16.17
2023-01-17T20:49:18.871Z,14.05
2023-01-17T20:51:47.901Z,11.60
2023-01-17T20:54:18.088Z,12.70
2023-01-17T20:56:47.574Z,19.50
2023-01-17T20:59:17.451Z,16.40
2023-01-17T21:01:47.303Z,12.38
2023-01-17T21:04:16.611Z,17.25
2023-01-17T21:06:45.179Z,13.55
2023-01-17T21:09:15.226Z,13.50
2023-01-17T21:11:43.470Z,11.00
2023-01-17T21:14:11.611Z,14.52
2023-01-17T21:16:39.938Z,15.40
2023-01-17T21:19:11.947Z,13.43
2023-01-17T21:21:40.300Z,15.00
2023-01-17T21:24:08.599Z,14.25
2023-01-17T21:26:38.709Z,13.50
2023-01-17T21:29:07.209Z,15.27
2023-01-17T21:31:36.676Z,14.57
2023-01-17T21:34:07.139Z,12.82
2023-01-17T21:36:38.225Z,13.50
2023-01-17T21:39:08.406Z,12.32
2023-01-17T21:41:39.264Z,12.48
2023-01-17T21:44:10.133Z,13.88
2023-01-17T21:46:39.396Z,11.25
2023-01-17T21:49:10.517Z,11.18
2023-01-17T21:52:00.433Z,12.02
2023-01-17T21:54:47.940Z,10.85
2023-01-17T21:57:35.420Z,11.82
2023-01-17T22:00:03.782Z,11.27
2023-01-17T22:02:39.904Z,12.27
2023-01-17T22:05:09.008Z,12.40
2023-01-17T22:07:40.104Z,13.98
2023-01-17T22:10:09.250Z,11.98
2023-01-17T22:12:37.353Z,12.77
2023-01-17T22:15:06.718Z,14.02
2023-01-17T22:17:34.791Z,13.15
2023-01-17T22:20:03.080Z,14.02
2023-01-17T22:22:34.210Z,13.45
2023-01-17T22:25:03.908Z,15.45
2023-01-17T22:27:32.144Z,15.27
2023-01-17T22:30:00.273Z,13.93
2023-01-17T22:32:28.683Z,14.80
2023-01-17T22:34:56.715Z,16.40
2023-01-17T22:37:25.051Z,13.40
2023-01-17T22:39:53.235Z,15.30
2023-01-17T22:42:22.608Z,15.48
2023-01-17T22:44:50.725Z,13.32
2023-01-17T22:47:18.841Z,14.65
2023-01-17T22:49:46.994Z,18.33
2023-01-17T22:52:15.058Z,14.40
2023-01-17T22:54:44.083Z,16.50
2023-01-17T22:57:12.250Z,16.55
2023-01-17T22:59:41.749Z,15.38
2023-01-17T23:02:10.049Z,13.13
2023-01-17T23:04:38.126Z,13.23
2023-01-17T23:07:06.987Z,17.63
2023-01-17T23:09:35.116Z,14.18
2023-01-17T23:12:02.333Z,15.07
2023-01-17T23:14:52.887Z,13.68
2023-01-17T23:17:40.596Z,14.23
2023-01-17T23:20:11.848Z,14.55
2023-01-17T23:22:40.341Z,17.60
2023-01-17T23:25:10.927Z,13.15
2023-01-17T23:27:58.671Z,14.90
2023-01-17T23:30:29.062Z,14.30
2023-01-17T23:33:01.107Z,12.20
2023-01-17T23:35:30.737Z,15.85
2023-01-17T23:38:16.258Z,15.15
2023-01-17T23:41:05.119Z,14.57
2023-01-17T23:43:33.147Z,16.10
2023-01-17T23:46:01.631Z,15.55
2023-01-17T23:48:31.369Z,18.63
2023-01-17T23:51:01.074Z,16.70
2023-01-17T23:53:29.806Z,18.10
2023-01-17T23:55:59.471Z,20.45
2023-01-17T23:58:28.912Z,18.67
